sensor_id;sensor_type;location;lat;lon;timestamp;pressure;altitude;pressure_sealevel;temperature;humidity
74675;BME280;63200;48.810;12.352;2024-01-16T00:01:28;96623.19;;;-2.29;100.00
74675;BME280;63200;48.810;12.352;2024-01-16T00:03:53;96625.13;;;-2.36;100.00
74675;BME280;63200;48.810;12.352;2024-01-16T00:06:19;96590.22;;;-2.58;100.00
74675;BME280;63200;48.810;12.352;2024-01-16T00:08:44;96570.53;;;-2.69;100.00
74675;BME280;63200;48.810;12.352;2024-01-16T00:11:10;96627.16;;;-2.31;100.00
74675;BME280;63200;48.810;12.352;2024-01-16T00:13:35;96633.72;;;-2.34;100.00
74675;BME280;63200;48.810;12.352;2024-01-16T00:16:03;96647.88;;;-2.40;100.00
74675;BME280;63200;48.810;12.352;2024-01-16T00:18:29;96638.88;;;-2.39;100.00
74675;BME280;63200;48.810;12.352;2024-01-16T00:20:54;96648.41;;;-2.31;100.00
74675;BME280;63200;48.810;12.352;2024-01-16T00:23:20;96640.13;;;-2.42;100.00
74675;BME280;63200;48.810;12.352;2024-01-16T00:25:45;96649.22;;;-2.31;100.00
74675;BME280;63200;48.810;12.352;2024-01-16T00:28:10;96657.75;;;-2.29;100.00
74675;BME280;63200;48.810;12.352;2024-01-16T00:30:36;96658.34;;;-2.27;100.00
74675;BME280;63200;48.810;12.352;2024-01-16T00:33:02;96661.63;;;-2.25;100.00
74675;BME280;63200;48.810;12.352;2024-01-16T00:35:28;96662.88;;;-2.27;100.00
74675;BME280;63200;48.810;12.352;2024-01-16T00:37:53;96670.84;;;-2.27;100.00
74675;BME280;63200;48.810;12.352;2024-01-16T00:40:18;96685.41;;;-2.30;100.00
74675;BME280;63200;48.810;12.352;2024-01-16T00:42:43;96680.09;;;-2.30;100.00
74675;BME280;63200;48.810;12.352;2024-01-16T00:45:09;96659.38;;;-2.46;100.00
74675;BME280;63200;48.810;12.352;2024-01-16T00:47:34;96689.09;;;-2.31;100.00
74675;BME280;63200;48.810;12.352;2024-01-16T00:49:59;96679.47;;;-2.32;100.00
74675;BME280;63200;48.810;12.352;2024-01-16T00:52:26;96700.53;;;-2.30;100.00
74675;BME280;63200;48.810;12.352;2024-01-16T00:54:52;96695.66;;;-2.33;100.00
74675;BME280;63200;48.810;12.352;2024-01-16T00:57:17;96703.84;;;-2.35;100.00
74675;BME280;63200;48.810;12.352;2024-01-16T00:59:45;96700.81;;;-2.39;100.00
74675;BME280;63200;48.810;12.352;2024-01-16T01:02:10;96712.84;;;-2.36;100.00
74675;BME280;63200;48.810;12.352;2024-01-16T01:04:37;96711.38;;;-2.32;100.00
74675;BME280;63200;48.810;12.352;2024-01-16T01:07:02;96700.03;;;-2.39;100.00
74675;BME280;63200;48.810;12.352;2024-01-16T01:09:27;96679.94;;;-2.54;100.00
74675;BME280;63200;48.810;12.352;2024-01-16T01:11:53;96711.22;;;-2.37;100.00
74675;BME280;63200;48.810;12.352;2024-01-16T01:14:18;96702.22;;;-2.36;100.00
74675;BME280;63200;48.810;12.352;2024-01-16T01:16:43;96698.78;;;-2.37;100.00
74675;BME280;63200;48.810;12.352;2024-01-16T01:19:08;96709.19;;;-2.35;100.00
74675;BME280;63200;48.810;12.352;2024-01-16T01:21:35;96645.72;;;-2.69;100.00
74675;BME280;63200;48.810;12.352;2024-01-16T01:24:01;96709.19;;;-2.35;100.00
74675;BME280;63200;48.810;12.352;2024-01-16T01:26:26;96713.00;;;-2.31;100.00
74675;BME280;63200;48.810;12.352;2024-01-16T01:28:51;96711.22;;;-2.37;100.00
74675;BME280;63200;48.810;12.352;2024-01-16T01:31:17;96708.56;;;-2.37;100.00
74675;BME280;63200;48.810;12.352;2024-01-16T01:33:42;96724.75;;;-2.39;100.00
74675;BME280;63200;48.810;12.352;2024-01-16T01:36:08;96722.31;;;-2.40;100.00
74675;BME280;63200;48.810;12.352;2024-01-16T01:38:33;96722.53;;;-2.42;100.00
74675;BME280;63200;48.810;12.352;2024-01-16T01:40:58;96727.41;;;-2.39;100.00
74675;BME280;63200;48.810;12.352;2024-01-16T01:43:24;96733.31;;;-2.37;100.00
74675;BME280;63200;48.810;12.352;2024-01-16T01:46:09;96727.19;;;-2.37;100.00
74675;BME280;63200;48.810;12.352;2024-01-16T01:48:37;96726.94;;;-2.36;100.00
74675;BME280;63200;48.810;12.352;2024-01-16T01:51:02;96742.47;;;-2.32;100.00
74675;BME280;63200;48.810;12.352;2024-01-16T01:53:29;96726.22;;;-2.43;100.00
74675;BME280;63200;48.810;12.352;2024-01-16T01:55:55;96737.75;;;-2.30;100.00
74675;BME280;63200;48.810;12.352;2024-01-16T01:58:21;96735.09;;;-2.30;100.00
74675;BME280;63200;48.810;12.352;2024-01-16T02:00:47;96742.72;;;-2.34;100.00
74675;BME280;63200;48.810;12.352;2024-01-16T02:03:13;96753.34;;;-2.34;100.00
74675;BME280;63200;48.810;12.352;2024-01-16T02:05:39;96745.38;;;-2.34;100.00
74675;BME280;63200;48.810;12.352;2024-01-16T02:08:04;96733.75;;;-2.40;100.00
74675;BME280;63200;48.810;12.352;2024-01-16T02:10:31;96748.44;;;-2.37;100.00
74675;BME280;63200;48.810;12.352;2024-01-16T02:12:57;96756.19;;;-2.36;100.00
74675;BME280;63200;48.810;12.352;2024-01-16T02:15:23;96748.03;;;-2.34;100.00
74675;BME280;63200;48.810;12.352;2024-01-16T02:17:49;96763.97;;;-2.34;100.00
74675;BME280;63200;48.810;12.352;2024-01-16T02:20:14;96767.44;;;-2.33;100.00
74675;BME280;63200;48.810;12.352;2024-01-16T02:22:43;96758.22;;;-2.31;98.51
74675;BME280;63200;48.810;12.352;2024-01-16T02:25:11;96763.75;;;-2.32;100.00
74675;BME280;63200;48.810;12.352;2024-01-16T02:27:36;96767.88;;;-2.37;100.00
74675;BME280;63200;48.810;12.352;2024-01-16T02:30:01;96774.22;;;-2.38;100.00
74675;BME280;63200;48.810;12.352;2024-01-16T02:32:27;96772.59;;;-2.39;100.00
74675;BME280;63200;48.810;12.352;2024-01-16T02:34:52;96777.09;;;-2.39;100.00
74675;BME280;63200;48.810;12.352;2024-01-16T02:37:17;96774.69;;;-2.41;100.00
74675;BME280;63200;48.810;12.352;2024-01-16T02:39:43;96785.31;;;-2.41;100.00
74675;BME280;63200;48.810;12.352;2024-01-16T02:42:08;96780.41;;;-2.44;100.00
74675;BME280;63200;48.810;12.352;2024-01-16T02:44:33;96777.53;;;-2.42;100.00
74675;BME280;63200;48.810;12.352;2024-01-16T02:46:58;96782.19;;;-2.38;100.00
74675;BME280;63200;48.810;12.352;2024-01-16T02:49:24;96782.25;;;-2.44;100.00
74675;BME280;63200;48.810;12.352;2024-01-16T02:51:52;96786.75;;;-2.45;100.00
74675;BME280;63200;48.810;12.352;2024-01-16T02:54:17;96799.19;;;-2.39;100.00
74675;BME280;63200;48.810;12.352;2024-01-16T02:56:42;96790.19;;;-2.38;100.00
74675;BME280;63200;48.810;12.352;2024-01-16T02:59:08;96791.19;;;-2.39;100.00
74675;BME280;63200;48.810;12.352;2024-01-16T03:01:33;96790.25;;;-2.44;100.00
74675;BME280;63200;48.810;12.352;2024-01-16T03:03:59;96799.22;;;-2.45;100.00
74675;BME280;63200;48.810;12.352;2024-01-16T03:06:24;96800.44;;;-2.41;98.57
74675;BME280;63200;48.810;12.352;2024-01-16T03:08:50;96808.84;;;-2.44;100.00
74675;BME280;63200;48.810;12.352;2024-01-16T03:11:16;96802.13;;;-2.47;100.00
74675;BME280;63200;48.810;12.352;2024-01-16T03:13:42;96738.25;;;-2.84;98.21
74675;BME280;63200;48.810;12.352;2024-01-16T03:16:08;96762.69;;;-2.75;99.35
74675;BME280;63200;48.810;12.352;2024-01-16T03:18:35;96818.28;;;-2.48;100.00
74675;BME280;63200;48.810;12.352;2024-01-16T03:21:01;96816.66;;;-2.49;100.00
74675;BME280;63200;48.810;12.352;2024-01-16T03:23:26;96812.75;;;-2.47;100.00
74675;BME280;63200;48.810;12.352;2024-01-16T03:25:51;96825.66;;;-2.51;100.00
74675;BME280;63200;48.810;12.352;2024-01-16T03:28:16;96819.75;;;-2.53;100.00
74675;BME280;63200;48.810;12.352;2024-01-16T03:30:42;96830.38;;;-2.53;100.00
74675;BME280;63200;48.810;12.352;2024-01-16T03:33:07;96824.69;;;-2.56;100.00
74675;BME280;63200;48.810;12.352;2024-01-16T03:35:33;96768.09;;;-2.89;100.00
74675;BME280;63200;48.810;12.352;2024-01-16T03:37:58;96819.75;;;-2.53;100.00
74675;BME280;63200;48.810;12.352;2024-01-16T03:40:23;96817.16;;;-2.59;100.00
74675;BME280;63200;48.810;12.352;2024-01-16T03:42:49;96821.84;;;-2.61;100.00
74675;BME280;63200;48.810;12.352;2024-01-16T03:45:14;96821.06;;;-2.62;100.00
74675;BME280;63200;48.810;12.352;2024-01-16T03:47:40;96821.63;;;-2.60;100.00
74675;BME280;63200;48.810;12.352;2024-01-16T03:50:05;96809.59;;;-2.62;100.00
74675;BME280;63200;48.810;12.352;2024-01-16T03:52:31;96816.50;;;-2.55;100.00
74675;BME280;63200;48.810;12.352;2024-01-16T03:54:56;96825.75;;;-2.64;100.00
74675;BME280;63200;48.810;12.352;2024-01-16T03:57:21;96836.34;;;-2.57;100.00
74675;BME280;63200;48.810;12.352;2024-01-16T03:59:47;96827.78;;;-2.59;100.00
74675;BME280;63200;48.810;12.352;2024-01-16T04:02:12;96824.97;;;-2.64;100.00
74675;BME280;63200;48.810;12.352;2024-01-16T04:04:37;96821.47;;;-2.65;100.00
74675;BME280;63200;48.810;12.352;2024-01-16T04:07:03;96821.25;;;-2.63;100.00
74675;BME280;63200;48.810;12.352;2024-01-16T04:09:29;96822.25;;;-2.58;100.00
74675;BME280;63200;48.810;12.352;2024-01-16T04:11:54;96825.75;;;-2.64;100.00
74675;BME280;63200;48.810;12.352;2024-01-16T04:14:20;96765.31;;;-3.01;100.00
74675;BME280;63200;48.810;12.352;2024-01-16T04:16:45;96824.28;;;-2.60;100.00
74675;BME280;63200;48.810;12.352;2024-01-16T04:19:10;96831.25;;;-2.59;100.00
74675;BME280;63200;48.810;12.352;2024-01-16T04:21:36;96834.59;;;-2.70;100.00
74675;BME280;63200;48.810;12.352;2024-01-16T04:24:01;96833.78;;;-2.71;100.00
74675;BME280;63200;48.810;12.352;2024-01-16T04:26:27;96808.59;;;-2.93;100.00
74675;BME280;63200;48.810;12.352;2024-01-16T04:28:52;96830.34;;;-2.78;100.00
74675;BME280;63200;48.810;12.352;2024-01-16T04:31:18;96823.41;;;-2.79;100.00
74675;BME280;63200;48.810;12.352;2024-01-16T04:33:44;96833.66;;;-2.82;100.00
74675;BME280;63200;48.810;12.352;2024-01-16T04:36:09;96830.34;;;-2.78;100.00
74675;BME280;63200;48.810;12.352;2024-01-16T04:38:35;96834.28;;;-2.80;100.00
74675;BME280;63200;48.810;12.352;2024-01-16T04:41:03;96835.88;;;-2.79;100.00
74675;BME280;63200;48.810;12.352;2024-01-16T04:43:29;96829.38;;;-2.83;100.00
74675;BME280;63200;48.810;12.352;2024-01-16T04:45:54;96829.16;;;-2.82;100.00
74675;BME280;63200;48.810;12.352;2024-01-16T04:48:19;96828.97;;;-2.80;100.00
74675;BME280;63200;48.810;12.352;2024-01-16T04:50:44;96828.50;;;-2.77;99.75
74675;BME280;63200;48.810;12.352;2024-01-16T04:53:10;96767.31;;;-3.21;100.00
74675;BME280;63200;48.810;12.352;2024-01-16T04:55:36;96834.63;;;-2.77;100.00
74675;BME280;63200;48.810;12.352;2024-01-16T04:58:01;96819.31;;;-2.75;100.00
74675;BME280;63200;48.810;12.352;2024-01-16T05:00:27;96835.88;;;-2.79;97.82
74675;BME280;63200;48.810;12.352;2024-01-16T05:02:52;96844.91;;;-2.87;98.22
74675;BME280;63200;48.810;12.352;2024-01-16T05:05:17;96843.53;;;-2.90;100.00
74675;BME280;63200;48.810;12.352;2024-01-16T05:07:43;96849.28;;;-2.99;97.43
74675;BME280;63200;48.810;12.352;2024-01-16T05:10:11;96852.59;;;-3.04;98.40
74675;BME280;63200;48.810;12.352;2024-01-16T05:12:42;96850.53;;;-3.02;98.31
74675;BME280;63200;48.810;12.352;2024-01-16T05:15:08;96847.94;;;-3.15;100.00
74675;BME280;63200;48.810;12.352;2024-01-16T05:17:34;96861.44;;;-3.17;97.25
74675;BME280;63200;48.810;12.352;2024-01-16T05:19:59;96843.84;;;-3.11;98.36
74675;BME280;63200;48.810;12.352;2024-01-16T05:22:25;96861.41;;;-3.10;96.68
74675;BME280;63200;48.810;12.352;2024-01-16T05:24:50;96856.31;;;-3.12;98.79
74675;BME280;63200;48.810;12.352;2024-01-16T05:27:16;96858.72;;;-3.04;100.00
74675;BME280;63200;48.810;12.352;2024-01-16T05:29:41;96856.72;;;-3.15;94.85
74675;BME280;63200;48.810;12.352;2024-01-16T05:32:06;96870.34;;;-3.05;96.16
74675;BME280;63200;48.810;12.352;2024-01-16T05:34:32;96862.25;;;-3.16;96.03
74675;BME280;63200;48.810;12.352;2024-01-16T05:36:57;96854.09;;;-3.22;96.45
74675;BME280;63200;48.810;12.352;2024-01-16T05:39:22;96859.94;;;-3.06;96.47
74675;BME280;63200;48.810;12.352;2024-01-16T05:41:47;96856.75;;;-3.22;96.48
74675;BME280;63200;48.810;12.352;2024-01-16T05:44:13;96868.09;;;-3.01;96.83
74675;BME280;63200;48.810;12.352;2024-01-16T05:46:38;96867.38;;;-3.22;95.26
74675;BME280;63200;48.810;12.352;2024-01-16T05:49:03;96864.84;;;-3.10;96.26
74675;BME280;63200;48.810;12.352;2024-01-16T05:51:29;96858.81;;;-3.24;95.40
74675;BME280;63200;48.810;12.352;2024-01-16T05:53:55;96867.16;;;-3.13;95.74
74675;BME280;63200;48.810;12.352;2024-01-16T05:56:20;96870.56;;;-3.06;94.44
74675;BME280;63200;48.810;12.352;2024-01-16T05:58:46;96875.50;;;-3.16;94.10
74675;BME280;63200;48.810;12.352;2024-01-16T06:01:11;96865.50;;;-3.14;93.71
74675;BME280;63200;48.810;12.352;2024-01-16T06:03:40;96860.47;;;-3.29;93.40
74675;BME280;63200;48.810;12.352;2024-01-16T06:06:06;96865.63;;;-3.41;94.68
74675;BME280;63200;48.810;12.352;2024-01-16T06:08:32;96857.88;;;-3.49;94.88
74675;BME280;63200;48.810;12.352;2024-01-16T06:10:57;96856.06;;;-3.49;93.41
74675;BME280;63200;48.810;12.352;2024-01-16T06:13:22;96857.50;;;-3.46;91.22
74675;BME280;63200;48.810;12.352;2024-01-16T06:15:48;96862.38;;;-3.50;92.92
74675;BME280;63200;48.810;12.352;2024-01-16T06:18:13;96861.19;;;-3.54;94.32
74675;BME280;63200;48.810;12.352;2024-01-16T06:20:38;96862.00;;;-3.54;92.86
74675;BME280;63200;48.810;12.352;2024-01-16T06:23:04;96862.41;;;-3.57;93.92
74675;BME280;63200;48.810;12.352;2024-01-16T06:25:29;96702.63;;;-4.56;92.45
74675;BME280;63200;48.810;12.352;2024-01-16T06:27:54;96864.06;;;-3.62;91.90
74675;BME280;63200;48.810;12.352;2024-01-16T06:30:21;96872.03;;;-3.62;91.10
74675;BME280;63200;48.810;12.352;2024-01-16T06:32:46;96871.41;;;-3.64;90.88
74675;BME280;63200;48.810;12.352;2024-01-16T06:35:12;96870.78;;;-3.66;91.50
74675;BME280;63200;48.810;12.352;2024-01-16T06:37:38;96880.19;;;-3.71;94.01
74675;BME280;63200;48.810;12.352;2024-01-16T06:40:04;96874.72;;;-3.69;93.29
74675;BME280;63200;48.810;12.352;2024-01-16T06:42:30;96873.28;;;-3.72;92.53
74675;BME280;63200;48.810;12.352;2024-01-16T06:44:56;96882.66;;;-3.69;93.72
74675;BME280;63200;48.810;12.352;2024-01-16T06:47:21;96876.75;;;-3.71;93.18
74675;BME280;63200;48.810;12.352;2024-01-16T06:49:46;96890.03;;;-3.78;94.03
74675;BME280;63200;48.810;12.352;2024-01-16T06:52:12;96880.84;;;-3.82;92.30
74675;BME280;63200;48.810;12.352;2024-01-16T06:54:37;96892.69;;;-3.85;91.85
74675;BME280;63200;48.810;12.352;2024-01-16T06:57:03;96890.06;;;-3.91;91.66
74675;BME280;63200;48.810;12.352;2024-01-16T06:59:28;96893.31;;;-3.96;91.78
74675;BME280;63200;48.810;12.352;2024-01-16T07:01:54;96892.31;;;-4.02;91.75
74675;BME280;63200;48.810;12.352;2024-01-16T07:04:20;96895.97;;;-4.09;92.98
74675;BME280;63200;48.810;12.352;2024-01-16T07:06:45;96907.81;;;-4.12;93.06
74675;BME280;63200;48.810;12.352;2024-01-16T07:09:11;96892.91;;;-4.06;94.83
74675;BME280;63200;48.810;12.352;2024-01-16T07:11:37;96846.03;;;-4.46;94.96
74675;BME280;63200;48.810;12.352;2024-01-16T07:14:03;96903.53;;;-3.99;96.84
74675;BME280;63200;48.810;12.352;2024-01-16T07:16:28;96895.75;;;-3.94;94.24
74675;BME280;63200;48.810;12.352;2024-01-16T07:18:54;96901.06;;;-4.08;92.79
74675;BME280;63200;48.810;12.352;2024-01-16T07:21:20;96911.25;;;-4.31;95.65
74675;BME280;63200;48.810;12.352;2024-01-16T07:23:46;96904.75;;;-4.22;97.81
74675;BME280;63200;48.810;12.352;2024-01-16T07:26:12;96861.13;;;-4.66;97.38
74675;BME280;63200;48.810;12.352;2024-01-16T07:28:37;96857.84;;;-4.82;99.89
74675;BME280;63200;48.810;12.352;2024-01-16T07:31:03;96907.81;;;-4.45;100.00
74675;BME280;63200;48.810;12.352;2024-01-16T07:33:28;96908.81;;;-4.53;100.00
74675;BME280;63200;48.810;12.352;2024-01-16T07:35:53;96910.66;;;-4.60;100.00
74675;BME280;63200;48.810;12.352;2024-01-16T07:38:19;96915.75;;;-4.52;100.00
74675;BME280;63200;48.810;12.352;2024-01-16T07:40:44;96871.72;;;-4.73;100.00
74675;BME280;63200;48.810;12.352;2024-01-16T07:43:09;96899.44;;;-4.42;99.87
74675;BME280;63200;48.810;12.352;2024-01-16T07:45:35;96906.38;;;-4.35;98.79
74675;BME280;63200;48.810;12.352;2024-01-16T07:48:00;96911.09;;;-4.16;97.59
74675;BME280;63200;48.810;12.352;2024-01-16T07:50:25;96913.91;;;-4.18;95.69
74675;BME280;63200;48.810;12.352;2024-01-16T07:52:51;96912.91;;;-4.10;94.71
74675;BME280;63200;48.810;12.352;2024-01-16T07:55:16;96907.59;;;-4.10;94.07
74675;BME280;63200;48.810;12.352;2024-01-16T07:57:43;96914.50;;;-3.82;90.41
74675;BME280;63200;48.810;12.352;2024-01-16T08:00:09;96895.34;;;-3.91;89.03
74675;BME280;63200;48.810;12.352;2024-01-16T08:02:37;96913.47;;;-3.81;90.65
74675;BME280;63200;48.810;12.352;2024-01-16T08:05:03;96914.47;;;-3.76;87.99
74675;BME280;63200;48.810;12.352;2024-01-16T08:07:28;96902.63;;;-3.53;88.98
74675;BME280;63200;48.810;12.352;2024-01-16T08:09:54;96912.41;;;-3.60;85.11
74675;BME280;63200;48.810;12.352;2024-01-16T08:12:19;96907.94;;;-3.60;85.90
74675;BME280;63200;48.810;12.352;2024-01-16T08:14:44;96911.25;;;-3.78;85.53
74675;BME280;63200;48.810;12.352;2024-01-16T08:17:10;96909.94;;;-3.48;86.76
74675;BME280;63200;48.810;12.352;2024-01-16T08:19:35;96911.56;;;-3.41;84.90
74675;BME280;63200;48.810;12.352;2024-01-16T08:22:01;96905.16;;;-3.20;82.57
74675;BME280;63200;48.810;12.352;2024-01-16T08:24:27;96899.84;;;-3.20;80.63
74675;BME280;63200;48.810;12.352;2024-01-16T08:26:53;96909.31;;;-2.92;81.93
74675;BME280;63200;48.810;12.352;2024-01-16T08:29:18;96909.41;;;-2.73;81.05
74675;BME280;63200;48.810;12.352;2024-01-16T08:31:43;96903.88;;;-2.72;80.43
74675;BME280;63200;48.810;12.352;2024-01-16T08:34:09;96909.69;;;-2.49;79.29
74675;BME280;63200;48.810;12.352;2024-01-16T08:36:34;96900.50;;;-2.54;77.65
74675;BME280;63200;48.810;12.352;2024-01-16T08:38:59;96912.16;;;-2.55;77.87
74675;BME280;63200;48.810;12.352;2024-01-16T08:41:25;96897.38;;;-2.44;77.82
74675;BME280;63200;48.810;12.352;2024-01-16T08:43:50;96909.13;;;-2.33;76.15
74675;BME280;63200;48.810;12.352;2024-01-16T08:46:17;96900.91;;;-2.25;75.27
74675;BME280;63200;48.810;12.352;2024-01-16T08:48:44;96906.28;;;-2.63;75.70
74675;BME280;63200;48.810;12.352;2024-01-16T08:51:11;96849.16;;;-2.79;76.35
74675;BME280;63200;48.810;12.352;2024-01-16T08:53:39;96907.88;;;-2.56;77.90
74675;BME280;63200;48.810;12.352;2024-01-16T08:56:04;96914.06;;;-2.69;79.15
74675;BME280;63200;48.810;12.352;2024-01-16T08:58:32;96913.09;;;-2.74;79.80
74675;BME280;63200;48.810;12.352;2024-01-16T09:01:02;96911.72;;;-2.83;82.01
74675;BME280;63200;48.810;12.352;2024-01-16T09:03:27;96910.34;;;-2.61;83.05
74675;BME280;63200;48.810;12.352;2024-01-16T09:05:52;96909.00;;;-2.45;82.64
74675;BME280;63200;48.810;12.352;2024-01-16T09:08:17;96906.84;;;-2.55;80.37
74675;BME280;63200;48.810;12.352;2024-01-16T09:10:43;96901.72;;;-2.24;79.25
74675;BME280;63200;48.810;12.352;2024-01-16T09:13:08;96901.03;;;-2.13;77.11
74675;BME280;63200;48.810;12.352;2024-01-16T09:15:33;96907.53;;;-2.34;77.28
74675;BME280;63200;48.810;12.352;2024-01-16T09:17:59;96909.53;;;-2.29;79.44
74675;BME280;63200;48.810;12.352;2024-01-16T09:20:24;96915.81;;;-2.24;79.06
74675;BME280;63200;48.810;12.352;2024-01-16T09:22:50;96906.69;;;-2.35;78.32
74675;BME280;63200;48.810;12.352;2024-01-16T09:25:15;96920.38;;;-2.06;80.05
74675;BME280;63200;48.810;12.352;2024-01-16T09:27:42;96913.47;;;-1.88;79.30
74675;BME280;63200;48.810;12.352;2024-01-16T09:30:07;96914.31;;;-1.88;78.10
74675;BME280;63200;48.810;12.352;2024-01-16T09:32:33;96924.84;;;-1.56;76.96
74675;BME280;63200;48.810;12.352;2024-01-16T09:35:01;96908.94;;;-1.62;75.35
74675;BME280;63200;48.810;12.352;2024-01-16T09:37:28;96923.81;;;-1.55;75.76
74675;BME280;63200;48.810;12.352;2024-01-16T09:39:54;96923.88;;;-1.80;77.20
74675;BME280;63200;48.810;12.352;2024-01-16T09:42:19;96864.00;;;-2.14;78.14
74675;BME280;63200;48.810;12.352;2024-01-16T09:44:46;96913.03;;;-1.60;77.51
74675;BME280;63200;48.810;12.352;2024-01-16T09:47:13;96828.25;;;-2.00;74.81
74675;BME280;63200;48.810;12.352;2024-01-16T09:49:41;96922.84;;;-1.23;74.60
74675;BME280;63200;48.810;12.352;2024-01-16T09:52:07;96920.25;;;-1.11;73.59
74675;BME280;63200;48.810;12.352;2024-01-16T09:54:32;96923.84;;;-1.18;72.85
74675;BME280;63200;48.810;12.352;2024-01-16T09:56:58;96918.94;;;-1.39;73.14
74675;BME280;63200;48.810;12.352;2024-01-16T09:59:24;96919.91;;;-1.15;73.51
74675;BME280;63200;48.810;12.352;2024-01-16T10:01:51;96874.75;;;-1.28;73.37
74675;BME280;63200;48.810;12.352;2024-01-16T10:04:17;96926.38;;;-0.74;73.25
74675;BME280;63200;48.810;12.352;2024-01-16T10:06:45;96927.31;;;-0.68;71.86
74675;BME280;63200;48.810;12.352;2024-01-16T10:09:12;96846.72;;;-1.12;70.04
74675;BME280;63200;48.810;12.352;2024-01-16T10:11:37;96896.69;;;-0.77;70.82
74675;BME280;63200;48.810;12.352;2024-01-16T10:14:03;96895.72;;;-0.83;70.86
74675;BME280;63200;48.810;12.352;2024-01-16T10:19:23;96918.69;;;-0.82;70.98
74675;BME280;63200;48.810;12.352;2024-01-16T10:21:49;96919.50;;;-0.81;70.52
74675;BME280;63200;48.810;12.352;2024-01-16T10:24:14;96919.16;;;-1.22;71.69
74675;BME280;63200;48.810;12.352;2024-01-16T10:26:39;96893.63;;;-1.11;71.94
74675;BME280;63200;48.810;12.352;2024-01-16T10:29:05;96906.28;;;-1.07;71.85
74675;BME280;63200;48.810;12.352;2024-01-16T10:31:30;96908.88;;;-1.00;71.41
74675;BME280;63200;48.810;12.352;2024-01-16T10:33:56;96912.16;;;-0.86;70.97
74675;BME280;63200;48.810;12.352;2024-01-16T10:36:23;96915.59;;;-0.67;71.08
74675;BME280;63200;48.810;12.352;2024-01-16T10:38:50;96913.09;;;-0.62;71.14
74675;BME280;63200;48.810;12.352;2024-01-16T10:41:23;96869.22;;;-1.08;70.83
74675;BME280;63200;48.810;12.352;2024-01-16T10:44:03;96916.22;;;-0.53;70.54
74675;BME280;63200;48.810;12.352;2024-01-16T10:46:29;96887.06;;;-0.36;69.83
74675;BME280;63200;48.810;12.352;2024-01-16T10:49:02;96895.47;;;-0.09;68.74
74675;BME280;63200;48.810;12.352;2024-01-16T10:51:28;96899.66;;;-0.01;67.34
74675;BME280;63200;48.810;12.352;2024-01-16T10:54:02;96894.69;;;-0.40;67.71
74675;BME280;63200;48.810;12.352;2024-01-16T10:56:33;96847.38;;;-0.56;67.46
74675;BME280;63200;48.810;12.352;2024-01-16T11:01:28;96844.56;;;-0.61;66.87
74675;BME280;63200;48.810;12.352;2024-01-16T11:03:54;96900.47;;;0.23;65.93
74675;BME280;63200;48.810;12.352;2024-01-16T11:06:22;96863.66;;;0.49;65.41
74675;BME280;63200;48.810;12.352;2024-01-16T11:08:48;96856.34;;;0.44;63.64
74675;BME280;63200;48.810;12.352;2024-01-16T11:11:15;96903.03;;;0.94;63.86
74675;BME280;63200;48.810;12.352;2024-01-16T11:13:41;96895.69;;;1.02;63.02
74675;BME280;63200;48.810;12.352;2024-01-16T11:16:10;96906.38;;;1.59;63.56
74675;BME280;63200;48.810;12.352;2024-01-16T11:18:36;96894.50;;;1.38;62.91
74675;BME280;63200;48.810;12.352;2024-01-16T11:21:08;96899.50;;;1.06;62.34
74675;BME280;63200;48.810;12.352;2024-01-16T11:23:35;96904.63;;;1.07;61.15
74675;BME280;63200;48.810;12.352;2024-01-16T11:26:24;96902.03;;;1.12;63.50
74675;BME280;63200;48.810;12.352;2024-01-16T11:28:49;96898.22;;;1.37;62.02
74675;BME280;63200;48.810;12.352;2024-01-16T11:31:33;96889.63;;;1.06;62.23
74675;BME280;63200;48.810;12.352;2024-01-16T11:34:00;96891.47;;;0.77;62.52
74675;BME280;63200;48.810;12.352;2024-01-16T11:36:51;96872.13;;;0.22;63.59
74675;BME280;63200;48.810;12.352;2024-01-16T11:39:24;96878.03;;;0.48;63.70
74675;BME280;63200;48.810;12.352;2024-01-16T11:41:57;96875.78;;;0.69;63.90
74675;BME280;63200;48.810;12.352;2024-01-16T11:44:45;96871.81;;;0.07;64.70
74675;BME280;63200;48.810;12.352;2024-01-16T11:47:22;96871.56;;;0.32;64.76
74675;BME280;63200;48.810;12.352;2024-01-16T11:49:50;96867.94;;;0.50;64.93
74675;BME280;63200;48.810;12.352;2024-01-16T11:52:39;96873.06;;;0.92;64.92
74675;BME280;63200;48.810;12.352;2024-01-16T12:00:57;96855.59;;;1.02;62.72
74675;BME280;63200;48.810;12.352;2024-01-16T12:03:23;96797.56;;;0.56;63.43
74675;BME280;63200;48.810;12.352;2024-01-16T12:05:58;96819.03;;;1.19;62.88
74675;BME280;63200;48.810;12.352;2024-01-16T12:08:23;96818.25;;;0.78;62.78
74675;BME280;63200;48.810;12.352;2024-01-16T12:10:49;96836.06;;;0.72;61.26
74675;BME280;63200;48.810;12.352;2024-01-16T12:13:15;96804.38;;;0.64;61.81
74675;BME280;63200;48.810;12.352;2024-01-16T12:15:40;96834.22;;;1.02;62.22
74675;BME280;63200;48.810;12.352;2024-01-16T12:18:07;96835.09;;;1.19;61.73
74675;BME280;63200;48.810;12.352;2024-01-16T12:20:34;96831.13;;;1.10;60.77
74675;BME280;63200;48.810;12.352;2024-01-16T12:23:01;96820.84;;;1.02;60.82
74675;BME280;63200;48.810;12.352;2024-01-16T12:25:28;96786.44;;;1.05;60.52
74675;BME280;63200;48.810;12.352;2024-01-16T12:28:01;96796.69;;;1.59;60.58
74675;BME280;63200;48.810;12.352;2024-01-16T12:30:31;96804.47;;;1.95;59.49
74675;BME280;63200;48.810;12.352;2024-01-16T12:35:36;96773.34;;;1.38;58.57
74675;BME280;63200;48.810;12.352;2024-01-16T12:38:03;96758.03;;;1.50;59.72
74675;BME280;63200;48.810;12.352;2024-01-16T12:40:30;96739.06;;;1.35;58.73
74675;BME280;63200;48.810;12.352;2024-01-16T12:42:56;96751.44;;;1.07;58.68
74675;BME280;63200;48.810;12.352;2024-01-16T12:45:22;96754.72;;;0.51;60.13
74675;BME280;63200;48.810;12.352;2024-01-16T12:47:54;96777.72;;;0.52;60.73
74675;BME280;63200;48.810;12.352;2024-01-16T12:50:24;96786.78;;;0.39;62.08
74675;BME280;63200;48.810;12.352;2024-01-16T12:52:50;96762.59;;;0.05;61.88
74675;BME280;63200;48.810;12.352;2024-01-16T12:55:16;96758.06;;;0.18;62.72
74675;BME280;63200;48.810;12.352;2024-01-16T12:57:43;96715.78;;;0.26;62.39